Dalmeny, Canada
Current Conditions -  °F | °C
As of 11:34 PM on Friday 19 Dec 2014 (Local Time) from CYXE Reporting Station
Light Snow Light Snow  
Wind Chill:   Ceiling: 300
Heat Index: 16°   Visibility: 2mi
Dew Point: 14°   Wind: 13mph
Humidity: 93%   Direction: 130°SE
Pressure: 29.85"   Gusts: NA
Location:  52.33°N, 106.78°W
Report Text: CYXE 200534Z 13011KT 2SM -SN BR OVC003 M09/M10 A2985 RMK ST8 SLP145
Loading
Personal Weather Stations






























Interactive Weather Map New forecast layout! Learn more

10-Day Weather Forecast

Advertisements
Track Severe Weather on mobile